Terminal Aerodrome Forecast
Issued by NWS

Home | Current Version | Previous Version | Graphics & Text | Print | Product List | Glossary On
Versions: 1 2 3 4 5 6 7 8 9 10 11 12 13 14 15 16 17 18 19 20 21 22 23 24 25 26
000
FTUS43 KABR 142300
TAFATY
TAF
KATY 142324Z 1500/1524 28006KT 1SM BR OVC002
     FM151100 35015KT 1SM -FZDZ BR OVC003
     FM151600 36020G30KT 1/2SM -SN FG OVC003=

USA.gov is the U.S. government's official web portal to all federal, state and local government web resources and services.